Time;durP1;ratioP1;P1;durP2;ratioP2;P2;SDS_P1;SDS_P2;PMS_P1;PMS_P2;Temp;Humidity;BMP_temperature;BMP_pressure;BME280_temperature;BME280_humidity;BME280_pressure;Samples;Min_cycle;Max_cycle;Signal;HPM_P1;HPM_P2
2023/05/06 00:01:43;;;;;;;11.38;6.90;;;;;;;;;;5024931;28;20124;-78
2023/05/06 00:04:09;;;;;;;11.82;7.32;;;;;;;;;;5024287;28;20508;-78
2023/05/06 00:06:36;;;;;;;10.45;6.90;;;;;;;;;;5022819;28;20046;-78
2023/05/06 00:09:03;;;;;;;10.20;5.82;;;;;;;;;;5025299;28;20559;-78
2023/05/06 00:11:29;;;;;;;8.63;4.97;;;;;;;;;;5021122;28;20140;-77
2023/05/06 00:13:55;;;;;;;9.52;5.05;;;;;;;;;;5023657;28;20058;-78
2023/05/06 00:16:22;;;;;;;10.80;5.45;;;;;;;;;;5019124;28;20840;-78
2023/05/06 00:18:48;;;;;;;11.80;5.90;;;;;;;;;;5018936;28;20038;-78
2023/05/06 00:21:14;;;;;;;12.50;5.82;;;;;;;;;;5022920;28;20062;-78
2023/05/06 00:23:41;;;;;;;12.52;6.13;;;;;;;;;;5036157;28;20351;-78
2023/05/06 00:26:08;;;;;;;10.85;6.35;;;;;;;;;;5027630;28;20056;-78
2023/05/06 00:28:34;;;;;;;12.90;6.60;;;;;;;;;;5023398;28;20054;-78
2023/05/06 00:31:01;;;;;;;13.85;6.63;;;;;;;;;;5026504;28;20058;-78
2023/05/06 00:33:27;;;;;;;12.20;6.30;;;;;;;;;;5026842;28;20575;-79
2023/05/06 00:35:53;;;;;;;10.88;6.05;;;;;;;;;;5025278;28;20533;-79
2023/05/06 00:38:20;;;;;;;10.15;6.00;;;;;;;;;;5023409;28;20049;-78
2023/05/06 00:40:47;;;;;;;10.27;6.05;;;;;;;;;;5036741;28;20061;-78
2023/05/06 00:43:13;;;;;;;11.90;7.00;;;;;;;;;;5029157;28;20053;-78
2023/05/06 00:45:40;;;;;;;11.73;7.18;;;;;;;;;;5032739;28;20147;-78
2023/05/06 00:48:06;;;;;;;12.82;7.85;;;;;;;;;;5024012;28;20157;-78
2023/05/06 00:50:33;;;;;;;14.95;8.15;;;;;;;;;;5027113;28;20484;-78
2023/05/06 00:53:01;;;;;;;14.43;8.50;;;;;;;;;;5029575;28;20093;-79
2023/05/06 00:55:27;;;;;;;15.18;9.27;;;;;;;;;;5027267;28;20144;-79
2023/05/06 00:57:54;;;;;;;21.25;10.30;;;;;;;;;;5023825;28;20440;-78
2023/05/06 01:00:20;;;;;;;14.90;8.70;;;;;;;;;;5028063;28;20065;-79
2023/05/06 01:02:47;;;;;;;16.08;9.93;;;;;;;;;;5028558;28;20822;-79
2023/05/06 01:05:15;;;;;;;15.77;9.77;;;;;;;;;;5024034;28;20054;-78
2023/05/06 01:08:00;;;;;;;20.30;11.07;;;;;;;;;;5024254;28;20054;-78
2023/05/06 01:10:48;;;;;;;18.80;11.23;;;;;;;;;;5026430;28;20503;-79
2023/05/06 01:13:19;;;;;;;17.92;10.98;;;;;;;;;;5023814;28;20479;-78
2023/05/06 01:15:46;;;;;;;19.20;11.90;;;;;;;;;;5027517;28;20066;-78
2023/05/06 01:18:15;;;;;;;20.25;11.85;;;;;;;;;;5026942;28;20054;-79
2023/05/06 01:20:44;;;;;;;18.02;11.05;;;;;;;;;;5025810;28;20436;-78
2023/05/06 01:23:11;;;;;;;18.70;10.63;;;;;;;;;;5025143;28;20169;-79
2023/05/06 01:25:38;;;;;;;21.00;11.38;;;;;;;;;;5007845;28;20050;-77
2023/05/06 01:28:09;;;;;;;18.25;11.25;;;;;;;;;;5024614;28;20058;-78
2023/05/06 01:30:39;;;;;;;22.30;13.05;;;;;;;;;;5010229;28;20053;-78
2023/05/06 01:33:21;;;;;;;21.08;11.65;;;;;;;;;;5008522;28;20054;-77
2023/05/06 01:36:00;;;;;;;20.98;11.85;;;;;;;;;;5021751;28;20528;-78
2023/05/06 01:38:30;;;;;;;22.17;11.65;;;;;;;;;;5027480;28;20141;-78
2023/05/06 01:40:57;;;;;;;19.48;11.57;;;;;;;;;;5026899;28;20049;-78
2023/05/06 01:43:25;;;;;;;20.95;12.43;;;;;;;;;;5027099;28;20508;-78
2023/05/06 01:45:53;;;;;;;23.05;12.98;;;;;;;;;;5024906;28;20337;-77
2023/05/06 01:48:21;;;;;;;20.88;11.80;;;;;;;;;;5034801;28;20590;-78
2023/05/06 01:50:48;;;;;;;23.15;12.90;;;;;;;;;;5012780;28;20069;-78
2023/05/06 01:53:14;;;;;;;20.48;11.82;;;;;;;;;;5026297;28;20130;-78
2023/05/06 01:55:40;;;;;;;18.95;11.32;;;;;;;;;;5029451;28;20061;-77
2023/05/06 01:58:07;;;;;;;21.50;12.65;;;;;;;;;;5023295;28;20064;-78
2023/05/06 02:00:33;;;;;;;18.27;11.50;;;;;;;;;;5028946;28;20091;-78
2023/05/06 02:03:00;;;;;;;22.33;12.38;;;;;;;;;;5026351;28;20112;-78
2023/05/06 02:05:26;;;;;;;26.70;12.50;;;;;;;;;;5024663;28;20141;-78
2023/05/06 02:07:53;;;;;;;26.63;12.90;;;;;;;;;;5024138;28;20530;-78
2023/05/06 02:10:19;;;;;;;19.00;11.93;;;;;;;;;;4991281;28;20054;-77
2023/05/06 02:12:45;;;;;;;20.98;12.52;;;;;;;;;;5009362;28;20183;-78
2023/05/06 02:15:12;;;;;;;18.33;11.75;;;;;;;;;;5027256;28;20069;-78
2023/05/06 02:17:38;;;;;;;21.35;12.45;;;;;;;;;;5025086;28;20069;-79
2023/05/06 02:20:05;;;;;;;19.40;11.88;;;;;;;;;;5025317;28;21118;-78
2023/05/06 02:22:31;;;;;;;20.77;11.38;;;;;;;;;;5014735;28;20408;-77
2023/05/06 02:24:58;;;;;;;24.98;12.60;;;;;;;;;;5026203;28;20069;-77
2023/05/06 02:27:24;;;;;;;16.30;10.43;;;;;;;;;;5026821;28;20058;-77
2023/05/06 02:29:50;;;;;;;16.63;10.13;;;;;;;;;;5008333;28;20089;-78
2023/05/06 02:32:17;;;;;;;19.40;11.18;;;;;;;;;;5024816;28;20081;-78
2023/05/06 02:34:45;;;;;;;19.73;11.25;;;;;;;;;;5024156;28;20060;-77
2023/05/06 02:37:11;;;;;;;17.90;11.68;;;;;;;;;;5024900;28;20132;-77
2023/05/06 02:39:37;;;;;;;24.60;12.40;;;;;;;;;;5017348;28;20546;-78
2023/05/06 02:42:04;;;;;;;19.63;11.52;;;;;;;;;;5023872;28;20062;-78
2023/05/06 02:44:30;;;;;;;21.60;11.60;;;;;;;;;;5017828;28;20054;-78
2023/05/06 02:46:56;;;;;;;13.77;9.60;;;;;;;;;;5017335;28;20081;-77
2023/05/06 02:49:23;;;;;;;14.05;9.30;;;;;;;;;;5022490;28;20436;-77
2023/05/06 02:51:49;;;;;;;12.93;9.35;;;;;;;;;;5026285;28;20132;-77
2023/05/06 02:54:16;;;;;;;12.52;8.65;;;;;;;;;;5019347;28;20065;-78
2023/05/06 02:56:45;;;;;;;12.00;8.15;;;;;;;;;;5021334;28;20565;-77
2023/05/06 02:59:12;;;;;;;11.50;7.60;;;;;;;;;;5006349;28;20068;-78
2023/05/06 03:01:38;;;;;;;11.13;8.07;;;;;;;;;;5024663;28;20061;-78
2023/05/06 03:04:05;;;;;;;16.17;8.45;;;;;;;;;;5006305;28;20108;-78
2023/05/06 03:06:32;;;;;;;12.05;8.23;;;;;;;;;;5003440;28;20065;-78
2023/05/06 03:11:40;;;;;;;11.02;8.02;;;;;;;;;;5238147;22;20053;-77
2023/05/06 03:14:07;;;;;;;16.17;10.25;;;;;;;;;;5030912;28;20168;-77
2023/05/06 03:16:33;;;;;;;17.88;11.88;;;;;;;;;;5040914;28;20057;-78
2023/05/06 03:19:02;;;;;;;15.50;9.70;;;;;;;;;;5028102;28;20049;-78
2023/05/06 03:21:29;;;;;;;26.05;13.25;;;;;;;;;;5045007;28;20076;-78
2023/05/06 03:23:55;;;;;;;24.30;14.93;;;;;;;;;;5045233;28;20053;-77
2023/05/06 03:26:22;;;;;;;44.28;17.67;;;;;;;;;;5044428;28;20056;-76
2023/05/06 03:28:49;;;;;;;38.60;16.42;;;;;;;;;;5045815;28;20072;-77
2023/05/06 03:31:15;;;;;;;40.58;15.35;;;;;;;;;;5027750;28;20049;-77
2023/05/06 03:33:41;;;;;;;27.88;15.70;;;;;;;;;;5046667;28;20085;-77
2023/05/06 03:36:08;;;;;;;24.58;14.52;;;;;;;;;;5042110;28;20168;-78
2023/05/06 03:38:34;;;;;;;23.33;14.88;;;;;;;;;;5045354;28;20144;-78
2023/05/06 03:41:01;;;;;;;30.83;15.70;;;;;;;;;;5040445;28;20089;-77
2023/05/06 03:43:27;;;;;;;27.25;14.38;;;;;;;;;;5027480;28;20081;-77
2023/05/06 03:45:53;;;;;;;23.90;14.88;;;;;;;;;;5043004;28;20044;-78
2023/05/06 03:48:20;;;;;;;22.17;14.95;;;;;;;;;;5046710;28;20049;-78
2023/05/06 03:50:46;;;;;;;17.50;12.82;;;;;;;;;;5042385;28;20049;-78
2023/05/06 03:53:12;;;;;;;17.55;11.95;;;;;;;;;;5044761;28;20107;-79
2023/05/06 03:55:39;;;;;;;40.53;11.75;;;;;;;;;;5022245;28;20119;-77
2023/05/06 03:58:06;;;;;;;13.57;8.93;;;;;;;;;;5043880;28;20049;-78
2023/05/06 04:00:32;;;;;;;17.33;9.18;;;;;;;;;;5039325;28;20054;-78
2023/05/06 04:02:58;;;;;;;12.23;8.05;;;;;;;;;;5045720;28;20057;-78
2023/05/06 04:05:25;;;;;;;15.45;8.85;;;;;;;;;;5042849;28;20360;-77
2023/05/06 04:07:52;;;;;;;15.80;8.07;;;;;;;;;;5028470;28;20057;-78
2023/05/06 04:10:18;;;;;;;20.92;8.25;;;;;;;;;;5025416;28;20686;-78
2023/05/06 04:12:46;;;;;;;24.83;9.27;;;;;;;;;;5046361;28;20068;-77
2023/05/06 04:15:12;;;;;;;29.60;9.60;;;;;;;;;;5043131;28;20088;-77
2023/05/06 04:17:38;;;;;;;11.80;7.93;;;;;;;;;;5047084;28;20537;-77
2023/05/06 04:20:10;;;;;;;12.95;8.15;;;;;;;;;;5043293;28;20049;-78
2023/05/06 04:22:37;;;;;;;12.13;8.07;;;;;;;;;;5047326;28;20134;-77
2023/05/06 04:25:04;;;;;;;14.95;8.15;;;;;;;;;;5050804;28;20057;-77
2023/05/06 04:27:31;;;;;;;11.50;8.15;;;;;;;;;;5048860;28;20056;-77
2023/05/06 04:29:57;;;;;;;11.82;8.70;;;;;;;;;;5045061;28;20135;-77
2023/05/06 04:32:26;;;;;;;22.73;9.23;;;;;;;;;;5049032;28;20063;-77
2023/05/06 04:34:53;;;;;;;21.77;9.73;;;;;;;;;;5031609;28;20294;-77
2023/05/06 04:37:19;;;;;;;47.72;9.63;;;;;;;;;;5048562;28;20057;-77
2023/05/06 04:39:46;;;;;;;67.20;11.35;;;;;;;;;;5043717;28;20755;-77
2023/05/06 04:42:13;;;;;;;34.80;10.63;;;;;;;;;;5047758;28;20137;-77
2023/05/06 04:44:40;;;;;;;39.95;10.55;;;;;;;;;;5047988;28;20621;-77
2023/05/06 04:47:07;;;;;;;60.03;10.80;;;;;;;;;;5048681;28;20487;-78
2023/05/06 04:49:33;;;;;;;42.85;10.60;;;;;;;;;;5044870;28;20319;-77
2023/05/06 04:52:00;;;;;;;33.97;10.27;;;;;;;;;;5029978;28;20045;-77
2023/05/06 04:54:27;;;;;;;34.75;11.00;;;;;;;;;;5050603;28;20045;-77
2023/05/06 04:56:53;;;;;;;27.25;11.23;;;;;;;;;;5041546;28;20145;-79
2023/05/06 04:59:19;;;;;;;28.33;10.73;;;;;;;;;;5050558;28;20064;-78
2023/05/06 05:01:46;;;;;;;14.10;10.27;;;;;;;;;;5045587;28;20055;-77
2023/05/06 05:04:12;;;;;;;14.43;10.23;;;;;;;;;;5043801;28;20100;-77
2023/05/06 05:06:39;;;;;;;16.77;10.93;;;;;;;;;;5044517;28;20053;-77
2023/05/06 05:09:05;;;;;;;16.63;11.95;;;;;;;;;;5029621;28;20054;-78
2023/05/06 05:11:32;;;;;;;15.18;10.57;;;;;;;;;;5046113;28;20085;-78
2023/05/06 05:13:58;;;;;;;16.20;10.85;;;;;;;;;;5045436;28;20061;-78
2023/05/06 05:16:27;;;;;;;17.10;11.82;;;;;;;;;;5045602;28;20050;-77
2023/05/06 05:18:53;;;;;;;17.77;12.40;;;;;;;;;;5044296;28;20503;-77
2023/05/06 05:21:20;;;;;;;27.27;16.52;;;;;;;;;;5045013;28;20051;-77
2023/05/06 05:23:46;;;;;;;23.45;15.20;;;;;;;;;;5041245;28;20037;-77
2023/05/06 05:26:13;;;;;;;23.38;15.48;;;;;;;;;;5045346;28;20060;-77
2023/05/06 05:28:39;;;;;;;24.83;16.05;;;;;;;;;;5048101;28;20049;-77
2023/05/06 05:31:05;;;;;;;24.27;15.73;;;;;;;;;;5045846;28;20090;-78
2023/05/06 05:33:35;;;;;;;30.27;19.77;;;;;;;;;;5045479;28;20690;-77
2023/05/06 05:36:02;;;;;;;33.67;21.50;;;;;;;;;;5046646;28;20058;-78
2023/05/06 05:38:28;;;;;;;33.78;21.75;;;;;;;;;;5047839;28;20076;-77
2023/05/06 05:40:55;;;;;;;30.98;18.75;;;;;;;;;;5041123;28;20065;-78
2023/05/06 05:43:24;;;;;;;27.98;18.13;;;;;;;;;;5047162;28;20057;-78
2023/05/06 05:45:51;;;;;;;31.55;19.42;;;;;;;;;;5044855;28;20061;-77
2023/05/06 05:48:17;;;;;;;31.88;21.08;;;;;;;;;;5048365;28;20053;-77
2023/05/06 05:50:44;;;;;;;30.95;19.58;;;;;;;;;;5044308;28;20050;-78
2023/05/06 05:53:11;;;;;;;28.10;18.88;;;;;;;;;;5049054;28;20124;-78
2023/05/06 05:55:37;;;;;;;31.55;20.17;;;;;;;;;;5045204;28;20064;-78
2023/05/06 05:58:03;;;;;;;31.13;20.20;;;;;;;;;;5034240;28;20518;-78
2023/05/06 06:00:30;;;;;;;31.83;20.70;;;;;;;;;;5042892;28;20061;-77
2023/05/06 06:02:57;;;;;;;30.00;18.95;;;;;;;;;;5045966;28;20049;-78
2023/05/06 06:05:23;;;;;;;31.45;20.58;;;;;;;;;;5068811;28;20826;-78
2023/05/06 06:07:50;;;;;;;32.25;21.60;;;;;;;;;;5062955;28;20084;-78
2023/05/06 06:10:16;;;;;;;33.70;20.80;;;;;;;;;;5042738;28;20058;-77
2023/05/06 06:12:43;;;;;;;34.00;20.65;;;;;;;;;;5043599;28;20072;-78
2023/05/06 06:15:10;;;;;;;32.30;20.30;;;;;;;;;;5046784;28;20049;-77
2023/05/06 06:17:37;;;;;;;32.58;20.25;;;;;;;;;;5041870;28;20147;-77
2023/05/06 06:20:04;;;;;;;31.60;20.45;;;;;;;;;;5043543;28;20064;-77
2023/05/06 06:22:30;;;;;;;31.17;20.17;;;;;;;;;;5037105;28;20054;-77
2023/05/06 06:24:56;;;;;;;31.95;20.45;;;;;;;;;;5024337;28;20483;-78
2023/05/06 06:27:23;;;;;;;34.08;20.75;;;;;;;;;;5040422;28;20049;-78
2023/05/06 06:29:49;;;;;;;30.85;19.77;;;;;;;;;;5039804;28;20053;-77
2023/05/06 06:32:16;;;;;;;33.40;21.70;;;;;;;;;;5042720;28;20471;-77
2023/05/06 06:34:42;;;;;;;35.38;21.50;;;;;;;;;;5043832;28;20558;-77
2023/05/06 06:37:09;;;;;;;33.90;21.23;;;;;;;;;;5045024;28;20138;-77
2023/05/06 06:39:35;;;;;;;31.40;20.90;;;;;;;;;;5033831;28;20534;-77
2023/05/06 06:42:05;;;;;;;35.85;19.60;;;;;;;;;;5040594;28;20057;-77
2023/05/06 06:44:33;;;;;;;34.05;20.25;;;;;;;;;;5023103;28;20049;-77
2023/05/06 06:46:59;;;;;;;30.17;18.83;;;;;;;;;;5039351;28;20054;-77
2023/05/06 06:49:26;;;;;;;29.55;19.05;;;;;;;;;;5042816;28;20140;-78
2023/05/06 06:51:53;;;;;;;32.92;18.92;;;;;;;;;;5044470;28;20578;-78
2023/05/06 06:54:19;;;;;;;33.10;20.00;;;;;;;;;;5025538;28;20084;-77
2023/05/06 06:56:45;;;;;;;27.40;17.63;;;;;;;;;;5024052;28;20056;-78
2023/05/06 06:59:12;;;;;;;28.83;18.40;;;;;;;;;;5047162;28;20168;-77
2023/05/06 07:01:40;;;;;;;27.10;17.17;;;;;;;;;;5039620;28;20523;-78
2023/05/06 07:04:06;;;;;;;27.38;18.48;;;;;;;;;;5040003;28;20054;-77
2023/05/06 07:06:33;;;;;;;28.63;18.23;;;;;;;;;;5038036;28;20064;-77
2023/05/06 07:08:59;;;;;;;32.03;19.25;;;;;;;;;;5043294;28;20041;-77
2023/05/06 07:11:26;;;;;;;27.35;17.35;;;;;;;;;;5031914;28;20168;-77
2023/05/06 07:13:52;;;;;;;29.42;18.42;;;;;;;;;;5038803;28;20164;-78
2023/05/06 07:16:19;;;;;;;27.33;17.80;;;;;;;;;;5031024;28;20083;-77
2023/05/06 07:18:46;;;;;;;25.25;16.85;;;;;;;;;;5041888;28;20057;-77
2023/05/06 07:21:13;;;;;;;28.50;16.77;;;;;;;;;;5023200;28;20734;-77
2023/05/06 07:23:39;;;;;;;23.23;16.13;;;;;;;;;;5036372;28;20518;-77
2023/05/06 07:26:05;;;;;;;23.48;16.55;;;;;;;;;;5040567;28;20060;-77
2023/05/06 07:28:32;;;;;;;26.67;15.90;;;;;;;;;;5036102;28;20062;-77
2023/05/06 07:31:00;;;;;;;26.65;16.20;;;;;;;;;;5038256;28;20570;-77
2023/05/06 07:33:27;;;;;;;26.10;16.50;;;;;;;;;;5035632;28;20115;-77
2023/05/06 07:35:54;;;;;;;29.33;17.67;;;;;;;;;;5034379;28;20054;-77
2023/05/06 07:38:23;;;;;;;24.98;15.88;;;;;;;;;;5039170;28;20057;-77
2023/05/06 07:40:50;;;;;;;26.17;16.20;;;;;;;;;;5039464;28;20112;-77
2023/05/06 07:43:16;;;;;;;24.65;15.90;;;;;;;;;;5044161;28;20050;-77
2023/05/06 07:45:43;;;;;;;24.63;15.65;;;;;;;;;;5043214;28;20136;-77
2023/05/06 07:48:09;;;;;;;23.30;15.60;;;;;;;;;;5037599;28;20069;-77
2023/05/06 07:50:36;;;;;;;23.25;15.45;;;;;;;;;;5037702;28;20503;-77
2023/05/06 07:53:02;;;;;;;27.42;15.48;;;;;;;;;;5038995;28;20085;-77
2023/05/06 07:55:29;;;;;;;24.27;15.70;;;;;;;;;;5023422;28;20057;-77
2023/05/06 07:57:57;;;;;;;23.00;14.77;;;;;;;;;;5041217;28;20053;-77
2023/05/06 08:00:24;;;;;;;23.52;15.93;;;;;;;;;;5045332;28;20499;-77
2023/05/06 08:02:50;;;;;;;22.70;15.88;;;;;;;;;;5048328;28;20064;-77
2023/05/06 08:05:17;;;;;;;23.98;15.30;;;;;;;;;;5046815;28;20412;-77
2023/05/06 08:07:43;;;;;;;21.45;15.27;;;;;;;;;;5047104;28;20057;-77
2023/05/06 08:10:10;;;;;;;25.15;15.55;;;;;;;;;;5039468;28;20081;-78
2023/05/06 08:12:36;;;;;;;24.38;15.82;;;;;;;;;;5018011;28;20580;-78
2023/05/06 08:15:04;;;;;;;25.88;17.60;;;;;;;;;;5037378;28;20100;-77
2023/05/06 08:17:30;;;;;;;28.30;17.60;;;;;;;;;;5040905;28;20500;-77
2023/05/06 08:19:56;;;;;;;33.33;17.20;;;;;;;;;;5055591;28;20060;-77
2023/05/06 08:22:23;;;;;;;28.75;16.80;;;;;;;;;;5027039;28;20613;-77
2023/05/06 08:24:49;;;;;;;29.48;17.83;;;;;;;;;;5042335;28;20725;-77
2023/05/06 08:27:16;;;;;;;32.90;19.83;;;;;;;;;;5044660;28;20538;-77
2023/05/06 08:29:42;;;;;;;22.35;14.80;;;;;;;;;;5047230;28;20061;-77
2023/05/06 08:32:09;;;;;;;23.15;15.35;;;;;;;;;;5044413;28;20762;-77
2023/05/06 08:34:36;;;;;;;22.33;14.00;;;;;;;;;;5040396;28;20061;-77
2023/05/06 08:37:02;;;;;;;23.50;15.40;;;;;;;;;;5043476;28;20053;-77
2023/05/06 08:39:30;;;;;;;24.27;15.75;;;;;;;;;;5045425;28;20058;-77
2023/05/06 08:41:58;;;;;;;19.88;13.93;;;;;;;;;;5021695;28;20104;-77
2023/05/06 08:44:24;;;;;;;23.48;15.20;;;;;;;;;;5036092;28;20054;-77
2023/05/06 08:46:51;;;;;;;25.15;14.48;;;;;;;;;;5041427;28;20065;-77
2023/05/06 08:49:17;;;;;;;20.40;14.20;;;;;;;;;;5045613;28;20122;-77
2023/05/06 08:51:44;;;;;;;19.90;13.98;;;;;;;;;;5046316;28;20266;-77
2023/05/06 08:54:11;;;;;;;21.27;14.38;;;;;;;;;;5025879;28;20065;-77
2023/05/06 08:56:38;;;;;;;21.83;14.57;;;;;;;;;;5037364;28;20053;-77
2023/05/06 08:59:07;;;;;;;22.00;14.20;;;;;;;;;;5036125;28;20496;-78
2023/05/06 09:01:35;;;;;;;19.30;13.57;;;;;;;;;;5038170;28;20054;-78
2023/05/06 09:04:02;;;;;;;23.30;14.18;;;;;;;;;;5041501;28;20107;-77
2023/05/06 09:06:29;;;;;;;21.23;14.25;;;;;;;;;;5041591;28;20940;-78
2023/05/06 09:08:55;;;;;;;20.92;14.57;;;;;;;;;;5045639;28;20061;-77
2023/05/06 09:11:25;;;;;;;23.35;14.45;;;;;;;;;;5052111;28;20060;-77
2023/05/06 09:14:12;;;;;;;20.88;13.85;;;;;;;;;;5045547;28;20104;-78
2023/05/06 09:16:40;;;;;;;20.35;13.02;;;;;;;;;;5045535;28;20369;-78
2023/05/06 09:19:07;;;;;;;21.55;13.45;;;;;;;;;;5043292;28;20053;-77
2023/05/06 09:21:37;;;;;;;21.17;13.55;;;;;;;;;;5043508;28;20148;-77
2023/05/06 09:24:06;;;;;;;20.98;13.88;;;;;;;;;;5041232;28;20085;-77
2023/05/06 09:26:33;;;;;;;21.33;14.07;;;;;;;;;;5047222;28;20053;-77
2023/05/06 09:29:00;;;;;;;3.50;2.83;;;;;;;;;;5054385;28;20058;-77
2023/05/06 09:31:27;;;;;;;19.30;10.70;;;;;;;;;;5042197;28;20057;-77
2023/05/06 09:33:54;;;;;;;23.75;12.55;;;;;;;;;;5045633;28;20523;-77
2023/05/06 09:36:23;;;;;;;16.65;11.85;;;;;;;;;;5044590;28;20061;-77
2023/05/06 09:38:50;;;;;;;21.67;12.32;;;;;;;;;;5047417;28;20233;-77
2023/05/06 09:41:19;;;;;;;20.85;13.32;;;;;;;;;;5039070;28;20060;-77
2023/05/06 09:43:47;;;;;;;18.07;12.73;;;;;;;;;;5030034;28;20064;-77
2023/05/06 09:46:15;;;;;;;22.30;13.10;;;;;;;;;;5025091;28;20057;-77
2023/05/06 09:48:42;;;;;;;13.18;6.30;;;;;;;;;;5040539;28;20148;-77
2023/05/06 09:51:08;;;;;;;3.45;2.22;;;;;;;;;;5042382;28;20595;-78
2023/05/06 09:53:36;;;;;;;18.13;12.65;;;;;;;;;;5042852;28;20589;-78
2023/05/06 09:56:06;;;;;;;8.27;3.40;;;;;;;;;;5045957;28;20060;-78
2023/05/06 09:58:33;;;;;;;18.63;12.13;;;;;;;;;;5041467;28;20064;-77
2023/05/06 10:01:02;;;;;;;21.40;12.50;;;;;;;;;;5011976;28;20045;-77
2023/05/06 10:03:29;;;;;;;19.70;12.93;;;;;;;;;;5027517;28;20484;-78
2023/05/06 10:05:58;;;;;;;19.05;13.50;;;;;;;;;;5027351;28;20049;-78
2023/05/06 10:08:25;;;;;;;35.90;3.38;;;;;;;;;;5043109;28;20112;-78
2023/05/06 10:10:51;;;;;;;56.00;8.48;;;;;;;;;;5039810;28;20504;-77
2023/05/06 10:13:19;;;;;;;18.00;8.52;;;;;;;;;;5043918;28;20049;-78
2023/05/06 10:15:47;;;;;;;14.65;8.30;;;;;;;;;;5040241;28;20148;-78
2023/05/06 10:18:14;;;;;;;15.57;7.75;;;;;;;;;;5052373;28;20053;-78
2023/05/06 10:20:42;;;;;;;27.08;5.35;;;;;;;;;;5042983;28;20524;-77
2023/05/06 10:23:12;;;;;;;0.43;0.40;;;;;;;;;;5041698;28;20057;-78
2023/05/06 10:25:39;;;;;;;0.20;0.20;;;;;;;;;;5041424;28;20143;-77
2023/05/06 10:28:07;;;;;;;0.20;0.20;;;;;;;;;;5042178;28;20575;-77
2023/05/06 10:30:41;;;;;;;0.20;0.20;;;;;;;;;;5040398;28;20053;-77
2023/05/06 10:33:08;;;;;;;0.20;0.20;;;;;;;;;;5038418;28;20192;-78
2023/05/06 10:35:41;;;;;;;0.10;0.10;;;;;;;;;;5043784;28;20428;-77
2023/05/06 10:38:16;;;;;;;0.30;0.22;;;;;;;;;;5046422;28;20049;-77
2023/05/06 10:40:43;;;;;;;0.10;0.10;;;;;;;;;;5046535;28;20740;-78
2023/05/06 10:43:31;;;;;;;0.20;0.20;;;;;;;;;;5043220;28;20115;-77
2023/05/06 10:46:02;;;;;;;0.52;0.52;;;;;;;;;;5043105;28;20096;-77
2023/05/06 10:48:29;;;;;;;0.20;0.20;;;;;;;;;;5044182;28;20071;-78
2023/05/06 10:51:14;;;;;;;0.20;0.20;;;;;;;;;;5021804;28;20568;-77
2023/05/06 10:53:57;;;;;;;0.20;0.20;;;;;;;;;;5043450;28;20524;-78
2023/05/06 10:56:26;;;;;;;0.35;0.20;;;;;;;;;;5028956;28;20064;-78
2023/05/06 10:58:54;;;;;;;0.20;0.20;;;;;;;;;;5043950;28;20065;-78
2023/05/06 11:01:22;;;;;;;0.40;0.35;;;;;;;;;;5037907;28;20144;-78
2023/05/06 11:03:48;;;;;;;0.20;0.20;;;;;;;;;;5021506;28;20139;-76
2023/05/06 11:06:31;;;;;;;0.20;0.20;;;;;;;;;;5039132;28;20143;-76
2023/05/06 11:08:59;;;;;;;0.30;0.30;;;;;;;;;;5036759;28;20363;-76
2023/05/06 11:11:44;;;;;;;0.20;0.20;;;;;;;;;;5040960;28;20594;-76
2023/05/06 11:14:12;;;;;;;0.20;0.20;;;;;;;;;;5028137;28;20060;-76
2023/05/06 11:16:47;;;;;;;0.10;0.10;;;;;;;;;;5035610;28;20107;-77
2023/05/06 11:19:21;;;;;;;0.20;0.20;;;;;;;;;;5023693;28;20060;-77
2023/05/06 11:21:48;;;;;;;0.20;0.20;;;;;;;;;;5022751;28;20061;-77
2023/05/06 11:24:21;;;;;;;0.10;0.10;;;;;;;;;;5024262;28;20161;-76
2023/05/06 11:26:48;;;;;;;0.20;0.20;;;;;;;;;;5036139;28;20059;-76
2023/05/06 11:29:15;;;;;;;0.20;0.20;;;;;;;;;;5039330;28;20053;-76
2023/05/06 11:31:43;;;;;;;0.10;0.10;;;;;;;;;;5042866;28;20540;-76
2023/05/06 11:34:11;;;;;;;0.30;0.30;;;;;;;;;;5038442;28;20054;-76
2023/05/06 11:36:45;;;;;;;1.45;0.35;;;;;;;;;;5032191;28;20145;-76
2023/05/06 11:39:12;;;;;;;0.20;0.20;;;;;;;;;;5041465;28;20065;-76
2023/05/06 11:41:39;;;;;;;0.30;0.30;;;;;;;;;;5038161;28;20057;-76
2023/05/06 11:44:06;;;;;;;0.10;0.10;;;;;;;;;;5024263;28;20531;-76
2023/05/06 11:46:35;;;;;;;0.20;0.20;;;;;;;;;;5034876;28;20595;-76
2023/05/06 11:49:01;;;;;;;0.28;0.28;;;;;;;;;;5022903;28;20054;-76
2023/05/06 11:51:27;;;;;;;0.15;0.15;;;;;;;;;;5024828;28;20559;-76
2023/05/06 11:54:04;;;;;;;0.20;0.20;;;;;;;;;;5024516;28;20088;-76
2023/05/06 11:56:41;;;;;;;0.20;0.20;;;;;;;;;;5035675;28;20049;-76
2023/05/06 11:59:07;;;;;;;0.28;0.28;;;;;;;;;;5042209;28;20061;-76
2023/05/06 12:01:34;;;;;;;0.20;0.20;;;;;;;;;;5061964;28;20045;-76
2023/05/06 12:04:03;;;;;;;0.20;0.20;;;;;;;;;;5048706;28;20057;-77
2023/05/06 12:06:33;;;;;;;0.20;0.20;;;;;;;;;;5037385;28;20053;-76
2023/05/06 12:09:01;;;;;;;0.30;0.30;;;;;;;;;;5039574;28;20061;-76
2023/05/06 12:11:28;;;;;;;0.20;0.20;;;;;;;;;;5024618;28;20528;-76
2023/05/06 12:13:54;;;;;;;0.32;0.30;;;;;;;;;;5038363;28;20109;-76
2023/05/06 12:16:22;;;;;;;0.22;0.22;;;;;;;;;;5038579;28;20058;-76
2023/05/06 12:18:49;;;;;;;0.52;0.35;;;;;;;;;;5048404;28;20053;-76
2023/05/06 12:21:20;;;;;;;0.40;0.30;;;;;;;;;;5024802;28;20140;-77
2023/05/06 12:23:51;;;;;;;0.20;0.20;;;;;;;;;;5036972;28;20054;-77
2023/05/06 12:26:18;;;;;;;0.70;0.30;;;;;;;;;;5022926;28;20060;-77
2023/05/06 13:00:01;;;;;;;0.40;0.40;;;;;;;;;;5042206;28;20503;-77
2023/05/06 13:02:28;;;;;;;0.20;0.20;;;;;;;;;;5045949;28;20058;-77
2023/05/06 13:04:55;;;;;;;0.40;0.20;;;;;;;;;;5041526;28;20053;-77
2023/05/06 13:42:16;;;;;;;0.10;0.10;;;;;;;;;;5034863;28;20094;-77
2023/05/06 13:44:43;;;;;;;0.10;0.10;;;;;;;;;;5044316;28;20058;-77
2023/05/06 13:47:09;;;;;;;0.20;0.20;;;;;;;;;;5043637;28;20054;-77
2023/05/06 13:49:36;;;;;;;0.10;0.10;;;;;;;;;;5024871;28;20046;-77
2023/05/06 13:52:02;;;;;;;0.65;0.50;;;;;;;;;;5043120;28;20093;-77
2023/05/06 13:54:32;;;;;;;0.13;0.13;;;;;;;;;;5027892;28;20063;-77
2023/05/06 13:57:00;;;;;;;0.20;0.20;;;;;;;;;;5040344;28;20104;-77
2023/05/06 13:59:26;;;;;;;0.10;0.10;;;;;;;;;;5040527;28;20124;-77
2023/05/06 14:01:54;;;;;;;0.20;0.20;;;;;;;;;;5040537;28;20611;-77
2023/05/06 14:04:21;;;;;;;0.13;0.13;;;;;;;;;;5025433;28;20053;-78
2023/05/06 14:06:47;;;;;;;0.20;0.20;;;;;;;;;;5036810;28;20069;-77
2023/05/06 14:09:14;;;;;;;0.22;0.22;;;;;;;;;;5041434;28;20045;-77
2023/05/06 14:11:40;;;;;;;0.20;0.20;;;;;;;;;;5044530;28;20057;-77
2023/05/06 14:14:07;;;;;;;0.10;0.10;;;;;;;;;;5022394;28;20076;-77
2023/05/06 14:16:33;;;;;;;0.20;0.20;;;;;;;;;;5041487;28;20093;-77
2023/05/06 14:19:00;;;;;;;0.20;0.20;;;;;;;;;;5042617;28;20119;-77
2023/05/06 14:21:26;;;;;;;0.28;0.28;;;;;;;;;;5045767;28;20591;-77
2023/05/06 14:23:53;;;;;;;0.65;0.40;;;;;;;;;;5040826;28;20061;-77
2023/05/06 14:26:19;;;;;;;0.63;0.55;;;;;;;;;;5043208;28;20065;-77
2023/05/06 14:28:46;;;;;;;0.57;0.57;;;;;;;;;;5042971;28;20050;-78
2023/05/06 14:31:12;;;;;;;0.13;0.13;;;;;;;;;;5036647;28;20262;-77
2023/05/06 14:33:39;;;;;;;0.30;0.30;;;;;;;;;;5022148;28;20057;-77
2023/05/06 14:36:05;;;;;;;0.10;0.10;;;;;;;;;;5041209;28;20057;-77
2023/05/06 14:38:32;;;;;;;0.43;0.30;;;;;;;;;;5026510;28;20061;-77
2023/05/06 14:40:58;;;;;;;0.20;0.20;;;;;;;;;;5025566;28;20052;-77
2023/05/06 14:43:25;;;;;;;0.60;0.50;;;;;;;;;;5043359;28;20132;-77
2023/05/06 14:45:51;;;;;;;0.20;0.20;;;;;;;;;;5044805;28;20057;-78
2023/05/06 14:48:17;;;;;;;0.20;0.20;;;;;;;;;;5040207;28;20049;-77
2023/05/06 14:50:44;;;;;;;1.02;0.43;;;;;;;;;;5044529;28;20100;-77
2023/05/06 14:53:10;;;;;;;0.10;0.10;;;;;;;;;;5043797;28;20678;-77
2023/05/06 14:55:37;;;;;;;0.32;0.28;;;;;;;;;;5044073;28;20140;-77
2023/05/06 14:58:03;;;;;;;0.13;0.13;;;;;;;;;;5022280;28;20503;-77
2023/05/06 15:00:30;;;;;;;0.20;0.20;;;;;;;;;;5042109;28;20091;-77
2023/05/06 15:02:58;;;;;;;0.20;0.20;;;;;;;;;;5033628;28;20143;-77
2023/05/06 15:05:24;;;;;;;0.20;0.20;;;;;;;;;;5038524;28;20064;-77
2023/05/06 15:07:51;;;;;;;0.20;0.20;;;;;;;;;;5048419;28;20093;-77
2023/05/06 15:10:17;;;;;;;0.20;0.20;;;;;;;;;;5043234;28;21256;-78
2023/05/06 15:12:44;;;;;;;0.20;0.20;;;;;;;;;;5048377;28;20061;-77
2023/05/06 15:15:10;;;;;;;0.10;0.10;;;;;;;;;;5029709;28;20050;-78
2023/05/06 15:17:38;;;;;;;0.32;0.30;;;;;;;;;;5044170;28;20060;-78
2023/05/06 15:20:05;;;;;;;0.20;0.20;;;;;;;;;;5045463;28;20053;-78
2023/05/06 15:22:32;;;;;;;0.30;0.22;;;;;;;;;;5048185;28;20065;-78
2023/05/06 15:24:58;;;;;;;0.20;0.20;;;;;;;;;;5046907;28;20068;-78
2023/05/06 15:27:25;;;;;;;0.20;0.20;;;;;;;;;;5046412;28;20051;-78
2023/05/06 15:29:51;;;;;;;0.20;0.20;;;;;;;;;;5043541;28;20057;-78
2023/05/06 15:32:17;;;;;;;0.15;0.15;;;;;;;;;;5042789;28;20065;-78
2023/05/06 15:34:44;;;;;;;0.10;0.10;;;;;;;;;;5046875;28;20061;-78
2023/05/06 15:37:10;;;;;;;0.20;0.20;;;;;;;;;;5034993;28;20189;-77